Dothan, West Virginia
Current Conditions -  °F | °C
As of 1:51 AM on Wednesday 22 Oct 2014 (Local Time) from KBKW Reporting Station
Light Rain Light Rain  
Wind Chill: 36°   Ceiling: 900
Heat Index: 42°   Visibility: 10mi
Dew Point: 39°   Wind: 10mph
Humidity: 89%   Direction: 320°NW
Pressure: 30.04"   Gusts: NA
Location:  37.97°N, 81.22°W
Report Text: KBKW 220551Z AUTO 32009KT 10SM -RA BKN009 OVC016 06/04 A3004 RMK AO2 RAB41 CIG 004V014 SLP176 P0000 60008 T00560039 10061 20056 58003 TSNO
Loading
Personal Weather Stations






























Interactive Weather Map
Tropical Storm Tracking
New forecast layout! Learn more

10-Day Weather Forecast

Advertisements
Track Severe Weather on mobile